createdAt,value
2022-10-11T00:02:12.230Z,5.45
2022-10-11T00:04:39.032Z,5.68
2022-10-11T00:07:05.882Z,5.55
2022-10-11T00:09:32.879Z,5.85
2022-10-11T00:11:59.920Z,5.28
2022-10-11T00:14:27.965Z,5.40
2022-10-11T00:16:55.099Z,5.32
2022-10-11T00:19:22.034Z,5.95
2022-10-11T00:21:49.066Z,6.28
2022-10-11T00:24:16.927Z,5.47
2022-10-11T00:26:46.776Z,5.68
2022-10-11T00:29:14.601Z,5.57
2022-10-11T00:31:41.772Z,6.30
2022-10-11T00:34:12.476Z,6.13
2022-10-11T00:36:39.274Z,6.45
2022-10-11T00:39:06.805Z,6.85
2022-10-11T00:41:33.974Z,6.22
2022-10-11T00:44:17.651Z,6.25
2022-10-11T00:46:59.506Z,5.82
2022-10-11T00:49:49.114Z,5.80
2022-10-11T00:52:32.766Z,5.47
2022-10-11T00:55:04.924Z,6.80
2022-10-11T00:57:35.617Z,6.57
2022-10-11T01:00:07.059Z,7.82
2022-10-11T01:02:33.930Z,7.20
2022-10-11T01:05:27.698Z,7.18
2022-10-11T01:07:50.161Z,6.97
2022-10-11T01:10:17.198Z,6.50
2022-10-11T01:13:02.297Z,6.38
2022-10-11T01:15:53.690Z,6.18
2022-10-11T01:18:47.514Z,6.88
2022-10-11T01:21:42.080Z,6.38
2022-10-11T01:24:27.307Z,6.13
2022-10-11T01:26:59.608Z,6.32
2022-10-11T01:29:52.610Z,6.40
2022-10-11T01:32:48.868Z,6.53
2022-10-11T01:35:36.163Z,6.82
2022-10-11T01:38:35.399Z,6.38
2022-10-11T01:41:10.488Z,6.22
2022-10-11T01:43:39.443Z,6.55
2022-10-11T01:46:09.222Z,6.70
2022-10-11T01:48:54.647Z,6.05
2022-10-11T01:51:46.994Z,7.80
2022-10-11T01:55:08.694Z,7.43
2022-10-11T01:58:04.862Z,7.25
2022-10-11T02:01:11.832Z,7.07
2022-10-11T02:03:58.780Z,6.78
2022-10-11T02:06:59.280Z,6.85
2022-10-11T02:09:44.483Z,6.95
2022-10-11T02:12:14.855Z,6.82
2022-10-11T02:14:45.295Z,7.10
2022-10-11T02:17:19.881Z,6.88
2022-10-11T02:19:52.112Z,6.30
2022-10-11T02:22:30.492Z,6.70
2022-10-11T02:25:02.374Z,5.85
2022-10-11T02:27:33.357Z,6.78
2022-10-11T02:30:03.828Z,6.07
2022-10-11T02:32:32.387Z,6.63
2022-10-11T02:35:01.694Z,5.97
2022-10-11T02:37:55.829Z,6.05
2022-10-11T02:40:46.971Z,6.40
2022-10-11T02:43:23.995Z,6.50
2022-10-11T02:45:55.937Z,8.82
2022-10-11T02:48:25.100Z,6.13
2022-10-11T02:50:53.517Z,6.63
2022-10-11T02:53:22.123Z,5.93
2022-10-11T02:55:51.482Z,5.88
2022-10-11T02:58:18.903Z,6.05
2022-10-11T03:00:46.145Z,6.07
2022-10-11T03:03:13.193Z,5.72
2022-10-11T03:05:44.038Z,6.35
2022-10-11T03:08:13.071Z,5.88
2022-10-11T03:10:40.648Z,5.70
2022-10-11T03:13:07.742Z,6.03
2022-10-11T03:15:34.937Z,5.50
2022-10-11T03:18:01.924Z,5.28
2022-10-11T03:20:28.760Z,5.97
2022-10-11T03:22:55.767Z,5.72
2022-10-11T03:25:22.853Z,5.25
2022-10-11T03:27:50.024Z,5.72
2022-10-11T03:30:18.499Z,5.75
2022-10-11T03:32:45.953Z,5.68
2022-10-11T03:35:12.972Z,6.13
2022-10-11T03:37:40.230Z,5.88
2022-10-11T03:40:08.808Z,5.47
2022-10-11T03:42:36.007Z,5.60
2022-10-11T03:45:05.075Z,6.30
2022-10-11T03:47:32.565Z,5.45
2022-10-11T03:49:59.426Z,5.57
2022-10-11T03:52:26.328Z,6.18
2022-10-11T03:54:53.183Z,6.05
2022-10-11T03:57:20.440Z,6.07
2022-10-11T03:59:48.165Z,6.10
2022-10-11T04:02:15.565Z,5.70
2022-10-11T04:04:42.381Z,6.38
2022-10-11T04:07:09.739Z,5.78
2022-10-11T04:09:36.708Z,5.35
2022-10-11T04:12:03.966Z,5.65
2022-10-11T04:14:30.774Z,4.53
2022-10-11T04:17:00.390Z,4.30
2022-10-11T04:19:27.934Z,4.80
2022-10-11T04:21:54.778Z,5.13
2022-10-11T04:24:21.948Z,5.47
2022-10-11T04:26:48.984Z,4.90
2022-10-11T04:29:15.979Z,5.50
2022-10-11T04:31:42.916Z,5.63
2022-10-11T04:34:09.787Z,6.10
2022-10-11T04:36:36.781Z,5.80
2022-10-11T04:39:04.298Z,5.15
2022-10-11T04:41:31.476Z,4.55
2022-10-11T04:43:58.459Z,4.78
2022-10-11T04:46:25.476Z,5.10
2022-10-11T04:48:52.660Z,5.30
2022-10-11T04:51:20.291Z,4.60
2022-10-11T04:53:49.145Z,4.95
2022-10-11T04:56:18.483Z,4.68
2022-10-11T04:58:48.227Z,5.10
2022-10-11T05:01:16.140Z,6.43
2022-10-11T05:03:42.949Z,6.05
2022-10-11T05:06:10.080Z,5.85
2022-10-11T05:08:37.896Z,5.57
2022-10-11T05:11:11.034Z,5.65
2022-10-11T05:13:38.527Z,6.22
2022-10-11T05:16:10.326Z,6.05
2022-10-11T05:18:38.810Z,5.78
2022-10-11T05:21:09.599Z,5.72
2022-10-11T05:23:38.160Z,5.82
2022-10-11T05:26:05.746Z,6.15
2022-10-11T05:28:33.060Z,6.03
2022-10-11T05:31:00.177Z,6.72
2022-10-11T05:33:27.568Z,8.60
2022-10-11T05:35:54.442Z,7.18
2022-10-11T05:38:21.697Z,6.88
2022-10-11T05:40:49.611Z,8.45
2022-10-11T05:43:16.778Z,7.03
2022-10-11T05:45:44.711Z,7.70
2022-10-11T05:48:11.935Z,7.55
2022-10-11T05:50:39.703Z,7.20
2022-10-11T05:53:07.021Z,8.38
2022-10-11T05:55:42.353Z,7.85
2022-10-11T05:58:13.443Z,9.05
2022-10-11T06:00:40.523Z,7.80
2022-10-11T06:03:10.701Z,7.25
2022-10-11T06:05:40.634Z,6.93
2022-10-11T06:08:08.813Z,6.78
2022-10-11T06:10:37.615Z,7.00
2022-10-11T06:13:05.357Z,10.68
2022-10-11T06:15:32.739Z,6.90
2022-10-11T06:18:00.113Z,7.20
2022-10-11T06:20:27.654Z,7.43
2022-10-11T06:22:54.759Z,7.18
2022-10-11T06:25:21.887Z,7.15
2022-10-11T06:27:49.187Z,6.28
2022-10-11T06:30:16.866Z,6.78
2022-10-11T06:32:43.855Z,6.63
2022-10-11T06:35:11.048Z,6.38
2022-10-11T06:37:38.321Z,5.72
2022-10-11T06:40:05.838Z,5.40
2022-10-11T06:42:32.981Z,5.15
2022-10-11T06:44:59.951Z,4.43
2022-10-11T06:47:26.747Z,4.55
2022-10-11T06:49:53.559Z,4.60
2022-10-11T06:52:20.344Z,4.63
2022-10-11T06:54:47.141Z,4.63
2022-10-11T06:57:13.964Z,4.38
2022-10-11T06:59:40.841Z,4.22
2022-10-11T07:02:08.737Z,4.22
2022-10-11T07:04:35.586Z,4.25
2022-10-11T07:07:02.408Z,4.53
2022-10-11T07:09:29.191Z,4.72
2022-10-11T07:11:56.081Z,4.70
2022-10-11T07:14:23.137Z,4.95
2022-10-11T07:16:50.122Z,4.70
2022-10-11T07:19:17.103Z,4.60
2022-10-11T07:21:43.922Z,5.15
2022-10-11T07:24:10.803Z,5.45
2022-10-11T07:26:38.627Z,6.28
2022-10-11T07:29:06.932Z,6.28
2022-10-11T07:31:39.201Z,6.18
2022-10-11T07:34:06.396Z,6.78
2022-10-11T07:36:33.383Z,6.80
2022-10-11T07:39:00.792Z,6.45
2022-10-11T07:41:27.809Z,30.23
2022-10-11T07:43:55.249Z,20.10
2022-10-11T07:46:22.025Z,17.88
2022-10-11T07:48:50.346Z,12.38
2022-10-11T07:51:20.935Z,10.73
2022-10-11T07:53:50.543Z,18.83
2022-10-11T07:56:20.012Z,13.88
2022-10-11T07:58:54.556Z,9.02
2022-10-11T08:01:21.814Z,7.53
2022-10-11T08:03:50.192Z,7.65
2022-10-11T08:06:20.922Z,6.32
2022-10-11T08:08:48.142Z,5.90
2022-10-11T08:11:31.237Z,5.85
2022-10-11T08:13:59.386Z,6.45
2022-10-11T08:16:26.636Z,8.02
2022-10-11T08:18:56.646Z,8.00
2022-10-11T08:21:23.444Z,6.82
2022-10-11T08:23:50.465Z,7.13
2022-10-11T08:26:17.420Z,6.80
2022-10-11T08:28:44.471Z,7.70
2022-10-11T08:31:16.994Z,7.75
2022-10-11T08:33:44.191Z,8.98
2022-10-11T08:36:12.074Z,8.38
2022-10-11T08:38:39.906Z,8.15
2022-10-11T08:41:38.106Z,8.63
2022-10-11T08:44:14.257Z,8.77
2022-10-11T08:46:45.427Z,7.93
2022-10-11T08:49:14.911Z,8.68
2022-10-11T08:51:56.455Z,8.32
2022-10-11T08:54:46.978Z,8.38
2022-10-11T08:57:20.487Z,8.57
2022-10-11T09:00:13.616Z,8.57
2022-10-11T09:03:09.505Z,8.10
2022-10-11T09:05:49.411Z,8.40
2022-10-11T09:08:31.183Z,8.27
2022-10-11T09:11:13.175Z,8.88
2022-10-11T09:13:43.874Z,8.48
2022-10-11T09:16:13.958Z,8.48
2022-10-11T09:18:42.806Z,8.20
2022-10-11T09:21:15.420Z,8.48
2022-10-11T09:23:51.354Z,8.07
2022-10-11T09:26:28.955Z,7.60
2022-10-11T09:29:16.322Z,6.95
2022-10-11T09:31:49.497Z,7.07
2022-10-11T09:34:16.799Z,5.43
2022-10-11T09:37:04.753Z,5.32
2022-10-11T09:39:37.358Z,4.53
2022-10-11T09:42:07.889Z,4.40
2022-10-11T09:44:40.055Z,4.78
2022-10-11T09:47:10.676Z,4.68
2022-10-11T09:49:46.949Z,3.58
2022-10-11T09:52:20.303Z,3.83
2022-10-11T09:54:50.414Z,3.90
2022-10-11T09:57:24.479Z,3.75
2022-10-11T10:00:00.002Z,4.53
2022-10-11T10:02:29.366Z,3.92
2022-10-11T10:05:07.096Z,5.13
2022-10-11T10:07:36.090Z,4.63
2022-10-11T10:10:28.427Z,4.13
2022-10-11T10:12:59.104Z,3.47
2022-10-11T10:15:48.211Z,3.30
2022-10-11T10:18:26.397Z,3.00
2022-10-11T10:20:59.639Z,3.60
2022-10-11T10:23:35.376Z,2.83
2022-10-11T10:26:14.527Z,3.20
2022-10-11T10:29:09.795Z,2.83
2022-10-11T10:32:12.859Z,3.05
2022-10-11T10:34:38.476Z,2.92
2022-10-11T10:37:22.922Z,2.70
2022-10-11T10:40:10.495Z,3.20
2022-10-11T10:42:37.797Z,2.95
2022-10-11T10:45:12.606Z,3.33
2022-10-11T10:48:07.555Z,2.95
2022-10-11T10:50:55.742Z,2.60
2022-10-11T10:53:44.730Z,3.00
2022-10-11T10:56:27.767Z,3.10
2022-10-11T10:59:16.842Z,3.35
2022-10-11T11:02:11.128Z,2.83
2022-10-11T11:05:16.401Z,2.70
2022-10-11T11:08:04.807Z,3.17
2022-10-11T11:10:43.478Z,3.25
2022-10-11T11:13:19.575Z,2.83
2022-10-11T11:16:24.386Z,2.10
2022-10-11T11:19:29.594Z,2.65
2022-10-11T11:22:15.350Z,2.67
2022-10-11T11:24:59.800Z,2.78
2022-10-11T11:27:53.153Z,3.33
2022-10-11T11:30:25.344Z,1.90
2022-10-11T11:33:03.752Z,1.83
2022-10-11T11:35:50.051Z,2.30
2022-10-11T11:38:19.223Z,2.63
2022-10-11T11:40:52.040Z,2.25
2022-10-11T11:43:32.983Z,2.17
2022-10-11T11:46:09.574Z,2.33
2022-10-11T11:48:37.450Z,1.60
2022-10-11T11:51:26.574Z,2.17
2022-10-11T11:54:20.204Z,2.45
2022-10-11T11:57:20.875Z,1.65
2022-10-11T11:59:53.437Z,2.28
2022-10-11T12:02:43.241Z,2.20
2022-10-11T12:05:14.996Z,1.92
2022-10-11T12:08:02.804Z,1.85
2022-10-11T12:10:38.057Z,2.20
2022-10-11T12:13:21.207Z,2.42
2022-10-11T12:16:10.262Z,1.70
2022-10-11T12:18:48.438Z,1.90
2022-10-11T12:21:32.705Z,2.22
2022-10-11T12:24:19.800Z,1.95
2022-10-11T12:26:48.787Z,1.98
2022-10-11T12:29:18.870Z,1.95
2022-10-11T12:31:50.810Z,1.63
2022-10-11T12:34:26.732Z,2.38
2022-10-11T12:36:53.750Z,2.05
2022-10-11T12:39:20.575Z,1.60
2022-10-11T12:41:53.815Z,2.60
2022-10-11T12:44:30.836Z,2.38
2022-10-11T12:46:57.936Z,2.10
2022-10-11T12:49:36.309Z,2.13
2022-10-11T12:52:22.692Z,1.67
2022-10-11T12:55:27.076Z,1.73
2022-10-11T12:58:10.160Z,2.20
2022-10-11T13:00:40.033Z,2.53
2022-10-11T13:03:31.847Z,2.25
2022-10-11T13:06:01.880Z,1.85
2022-10-11T13:08:36.627Z,2.10
2022-10-11T13:11:08.682Z,1.60
2022-10-11T13:13:48.406Z,2.22
2022-10-11T13:16:18.741Z,1.92
2022-10-11T13:18:49.488Z,2.92
2022-10-11T13:21:21.559Z,1.60
2022-10-11T13:23:57.876Z,2.08
2022-10-11T13:26:26.673Z,2.00
2022-10-11T13:28:53.854Z,2.00
2022-10-11T13:31:21.900Z,1.95
2022-10-11T13:33:48.913Z,2.10
2022-10-11T13:36:20.671Z,2.13
2022-10-11T13:38:57.704Z,1.83
2022-10-11T13:41:27.662Z,2.10
2022-10-11T13:43:57.177Z,1.95
2022-10-11T13:46:29.561Z,1.85
2022-10-11T13:49:03.985Z,1.55
2022-10-11T13:51:38.584Z,1.50
2022-10-11T13:54:10.567Z,1.92
2022-10-11T13:56:50.948Z,1.58
2022-10-11T13:59:28.196Z,2.00
2022-10-11T14:02:00.400Z,1.73
2022-10-11T14:04:29.924Z,2.00
2022-10-11T14:07:02.687Z,2.13
2022-10-11T14:09:34.506Z,2.25
2022-10-11T14:12:28.187Z,2.08
2022-10-11T14:14:55.098Z,1.92
2022-10-11T14:17:33.158Z,2.05
2022-10-11T14:20:14.029Z,1.88
2022-10-11T14:22:40.917Z,1.73
2022-10-11T14:25:07.799Z,1.77
2022-10-11T14:27:35.043Z,1.85
2022-10-11T14:32:52.665Z,1.70
2022-10-11T14:35:25.489Z,1.58
2022-10-11T14:37:53.360Z,1.60
2022-10-11T14:40:22.581Z,2.00
2022-10-11T14:42:50.094Z,1.95
2022-10-11T14:45:17.959Z,2.22
2022-10-11T14:47:45.525Z,1.85
2022-10-11T14:50:42.845Z,1.55
2022-10-11T14:53:11.227Z,2.42
2022-10-11T14:55:40.030Z,2.10
2022-10-11T14:58:08.735Z,1.92
2022-10-11T15:00:36.496Z,1.85
2022-10-11T15:03:05.247Z,2.03
2022-10-11T15:05:34.116Z,1.60
2022-10-11T15:08:02.355Z,1.95
2022-10-11T15:10:40.884Z,1.45
2022-10-11T15:13:09.189Z,2.10
2022-10-11T15:15:37.651Z,2.15
2022-10-11T15:18:06.756Z,1.65
2022-10-11T15:20:37.145Z,1.80
2022-10-11T15:23:05.849Z,2.30
2022-10-11T15:25:32.888Z,2.10
2022-10-11T15:28:00.317Z,1.88
2022-10-11T15:30:31.054Z,2.05
2022-10-11T15:32:58.794Z,2.30
2022-10-11T15:35:27.102Z,1.95
2022-10-11T15:37:56.729Z,2.40
2022-10-11T15:40:34.180Z,2.22
2022-10-11T15:43:01.931Z,2.28
2022-10-11T15:45:29.692Z,1.50
2022-10-11T15:47:56.746Z,2.28
2022-10-11T15:50:34.413Z,2.00
2022-10-11T15:53:05.913Z,1.95
2022-10-11T15:55:34.937Z,2.10
2022-10-11T15:58:02.014Z,2.20
2022-10-11T16:00:29.747Z,1.88
2022-10-11T16:02:58.141Z,2.15
2022-10-11T16:05:27.300Z,2.08
2022-10-11T16:07:54.587Z,2.28
2022-10-11T16:10:21.730Z,2.97
2022-10-11T16:12:49.685Z,2.72
2022-10-11T16:15:17.441Z,2.25
2022-10-11T16:17:46.621Z,3.28
2022-10-11T16:20:14.392Z,2.33
2022-10-11T16:22:41.902Z,2.55
2022-10-11T16:25:08.948Z,2.13
2022-10-11T16:27:36.221Z,1.90
2022-10-11T16:30:04.552Z,2.10
2022-10-11T16:32:33.874Z,2.65
2022-10-11T16:35:00.984Z,3.15
2022-10-11T16:37:28.120Z,2.75
2022-10-11T16:39:55.174Z,2.60
2022-10-11T16:42:22.331Z,2.40
2022-10-11T16:44:49.414Z,1.63
2022-10-11T16:47:16.708Z,2.13
2022-10-11T16:49:43.540Z,2.25
2022-10-11T16:52:11.053Z,2.00
2022-10-11T16:54:38.470Z,1.95
2022-10-11T16:57:05.269Z,1.80
2022-10-11T16:59:32.376Z,3.15
2022-10-11T17:01:59.224Z,4.55
2022-10-11T17:04:26.314Z,4.70
2022-10-11T17:06:55.303Z,3.90
2022-10-11T17:09:22.205Z,2.90
2022-10-11T17:11:49.048Z,2.63
2022-10-11T17:14:16.486Z,2.78
2022-10-11T17:16:43.709Z,2.75
2022-10-11T17:19:13.899Z,2.50
2022-10-11T17:21:41.534Z,2.75
2022-10-11T17:24:09.068Z,3.33
2022-10-11T17:26:36.003Z,3.08
2022-10-11T17:29:03.398Z,2.70
2022-10-11T17:31:31.000Z,2.92
2022-10-11T17:34:00.003Z,2.40
2022-10-11T17:36:36.280Z,2.90
2022-10-11T17:39:06.692Z,2.90
2022-10-11T17:41:34.074Z,2.58
2022-10-11T17:44:02.909Z,2.60
2022-10-11T17:46:32.962Z,3.53
2022-10-11T17:49:01.099Z,2.67
2022-10-11T17:51:28.184Z,2.90
2022-10-11T17:53:55.269Z,2.53
2022-10-11T17:56:28.328Z,2.85
2022-10-11T17:58:58.480Z,4.13
2022-10-11T18:01:28.606Z,3.88
2022-10-11T18:04:01.684Z,3.33
2022-10-11T18:06:31.257Z,3.65
2022-10-11T18:09:02.130Z,3.42
2022-10-11T18:11:30.632Z,4.00
2022-10-11T18:13:57.607Z,4.15
2022-10-11T18:16:27.690Z,4.38
2022-10-11T18:18:57.376Z,3.75
2022-10-11T18:21:33.975Z,3.70
2022-10-11T18:24:06.006Z,3.30
2022-10-11T18:26:33.321Z,3.17
2022-10-11T18:29:00.981Z,3.50
2022-10-11T18:31:30.154Z,4.22
2022-10-11T18:33:57.104Z,3.10
2022-10-11T18:36:27.361Z,3.40
2022-10-11T18:39:01.383Z,3.80
2022-10-11T18:41:32.120Z,4.10
2022-10-11T18:44:03.532Z,4.80
2022-10-11T18:46:32.322Z,5.47
2022-10-11T18:49:03.655Z,4.45
2022-10-11T18:51:39.267Z,4.78
2022-10-11T18:54:08.178Z,4.60
2022-10-11T18:56:37.219Z,4.78
2022-10-11T18:59:05.686Z,4.50
2022-10-11T19:01:38.727Z,4.65
2022-10-11T19:04:07.775Z,4.60
2022-10-11T19:06:41.318Z,5.22
2022-10-11T19:09:10.553Z,4.95
2022-10-11T19:11:38.489Z,4.47
2022-10-11T19:14:11.598Z,4.43
2022-10-11T19:16:40.793Z,4.20
2022-10-11T19:19:09.638Z,4.07
2022-10-11T19:21:37.270Z,4.75
2022-10-11T19:24:04.598Z,5.22
2022-10-11T19:26:34.000Z,5.10
2022-10-11T19:29:07.257Z,5.63
2022-10-11T19:31:36.721Z,6.32
2022-10-11T19:34:03.839Z,6.85
2022-10-11T19:36:36.266Z,6.18
2022-10-11T19:39:05.947Z,6.05
2022-10-11T19:41:33.602Z,5.60
2022-10-11T19:44:00.663Z,6.85
2022-10-11T19:49:17.866Z,8.55
2022-10-11T19:51:44.677Z,9.30
2022-10-11T19:54:13.717Z,9.77
2022-10-11T19:56:41.289Z,10.50
2022-10-11T19:59:08.556Z,10.48
2022-10-11T20:01:37.171Z,9.93
2022-10-11T20:04:07.050Z,9.35
2022-10-11T20:06:38.561Z,9.75
2022-10-11T20:11:54.304Z,10.80
2022-10-11T20:14:21.464Z,9.57
2022-10-11T20:16:50.361Z,9.15
2022-10-11T20:19:17.674Z,9.07
2022-10-11T20:21:45.048Z,8.73
2022-10-11T20:24:12.383Z,9.00
2022-10-11T20:26:39.512Z,9.35
2022-10-11T20:29:06.884Z,8.57
2022-10-11T20:31:38.512Z,9.65
2022-10-11T20:34:07.501Z,9.32
2022-10-11T20:36:36.371Z,8.75
2022-10-11T20:39:06.837Z,8.85
2022-10-11T20:41:39.774Z,8.70
2022-10-11T20:44:07.968Z,8.20
2022-10-11T20:46:37.870Z,8.40
2022-10-11T20:49:10.459Z,8.32
2022-10-11T20:51:38.961Z,8.13
2022-10-11T20:54:06.341Z,8.20
2022-10-11T20:56:34.357Z,7.63
2022-10-11T20:59:01.509Z,8.02
2022-10-11T21:01:40.469Z,8.23
2022-10-11T21:04:10.388Z,7.93
2022-10-11T21:06:37.425Z,6.65
2022-10-11T21:09:04.769Z,7.68
2022-10-11T21:11:33.444Z,7.15
2022-10-11T21:14:02.383Z,7.70
2022-10-11T21:16:30.025Z,6.97
2022-10-11T21:18:59.405Z,7.20
2022-10-11T21:21:27.495Z,7.25
2022-10-11T21:23:55.350Z,7.13
2022-10-11T21:26:22.204Z,6.63
2022-10-11T21:28:49.520Z,6.90
2022-10-11T21:31:18.596Z,6.78
2022-10-11T21:33:45.971Z,6.82
2022-10-11T21:36:19.538Z,7.07
2022-10-11T21:38:46.740Z,7.15
2022-10-11T21:41:19.548Z,7.43
2022-10-11T21:43:47.374Z,7.53
2022-10-11T21:46:32.482Z,7.47
2022-10-11T21:49:09.223Z,7.20
2022-10-11T21:51:36.897Z,7.93
2022-10-11T21:54:04.018Z,7.72
2022-10-11T21:56:31.101Z,7.60
2022-10-11T21:58:58.333Z,7.15
2022-10-11T22:01:25.331Z,7.25
2022-10-11T22:03:54.115Z,6.80
2022-10-11T22:06:22.131Z,7.35
2022-10-11T22:08:50.134Z,6.90
2022-10-11T22:11:17.533Z,7.03
2022-10-11T22:13:44.795Z,6.63
2022-10-11T22:16:13.393Z,7.20
2022-10-11T22:18:41.488Z,6.43
2022-10-11T22:21:20.375Z,6.28
2022-10-11T22:23:49.942Z,5.97
2022-10-11T22:26:22.734Z,6.28
2022-10-11T22:28:49.811Z,6.07
2022-10-11T22:31:19.473Z,6.03
2022-10-11T22:33:46.990Z,6.63
2022-10-11T22:36:16.535Z,5.45
2022-10-11T22:38:43.841Z,5.95
2022-10-11T22:41:11.519Z,6.22
2022-10-11T22:43:38.862Z,5.45
2022-10-11T22:46:06.660Z,5.90
2022-10-11T22:48:33.821Z,6.38
2022-10-11T22:51:01.341Z,5.80
2022-10-11T22:53:29.106Z,6.00
2022-10-11T22:55:56.038Z,6.47
2022-10-11T22:58:23.309Z,5.80
2022-10-11T23:00:50.399Z,6.28
2022-10-11T23:03:18.760Z,5.68
2022-10-11T23:05:55.332Z,6.15
2022-10-11T23:08:22.378Z,8.23
2022-10-11T23:10:49.586Z,6.72
2022-10-11T23:13:16.877Z,8.13
2022-10-11T23:15:44.093Z,7.05
2022-10-11T23:18:11.029Z,7.40
2022-10-11T23:20:39.534Z,7.72
2022-10-11T23:23:07.097Z,7.95
2022-10-11T23:25:34.463Z,7.80
2022-10-11T23:28:02.181Z,8.07
2022-10-11T23:30:30.132Z,7.55
2022-10-11T23:32:57.493Z,8.07
2022-10-11T23:35:24.619Z,7.85
2022-10-11T23:37:53.784Z,6.88
2022-10-11T23:40:20.919Z,7.43
2022-10-11T23:42:48.049Z,7.10
2022-10-11T23:45:14.921Z,7.05
2022-10-11T23:47:41.674Z,7.05
2022-10-11T23:50:09.074Z,6.88
2022-10-11T23:52:36.307Z,7.78
2022-10-11T23:55:03.743Z,7.53
2022-10-11T23:57:30.557Z,7.57
2022-10-11T23:59:57.639Z,7.43
